createdAt,value
2024-03-08T00:01:50.694Z,93.00
2024-03-08T00:06:52.673Z,93.30
2024-03-08T00:11:55.862Z,93.60
2024-03-08T00:16:57.648Z,93.90
2024-03-08T00:21:59.431Z,93.60
2024-03-08T00:27:02.617Z,93.90
2024-03-08T00:32:04.685Z,94.00
2024-03-08T00:37:06.571Z,94.00
2024-03-08T00:42:09.758Z,93.90
2024-03-08T00:47:11.820Z,94.00
2024-03-08T00:52:13.641Z,93.90
2024-03-08T00:57:17.013Z,93.80
2024-03-08T01:02:18.971Z,93.60
2024-03-08T01:07:20.704Z,93.60
2024-03-08T01:12:23.806Z,93.60
2024-03-08T01:17:25.613Z,93.60
2024-03-08T01:22:27.363Z,93.60
2024-03-08T01:27:30.545Z,93.70
2024-03-08T01:32:32.482Z,93.80
2024-03-08T01:37:34.265Z,94.10
2024-03-08T01:42:37.434Z,94.40
2024-03-08T01:47:39.866Z,94.50
2024-03-08T01:52:41.828Z,94.70
2024-03-08T01:57:45.187Z,94.70
2024-03-08T02:02:47.750Z,94.90
2024-03-08T02:07:49.723Z,95.20
2024-03-08T02:12:52.936Z,95.50
2024-03-08T02:17:54.769Z,95.80
2024-03-08T02:22:58.164Z,96.50
2024-03-08T02:27:59.933Z,96.70
2024-03-08T02:33:01.913Z,96.80
2024-03-08T02:38:05.296Z,97.20
2024-03-08T02:43:07.025Z,97.90
2024-03-08T02:48:09.816Z,98.20
2024-03-08T02:53:13.875Z,98.50
2024-03-08T02:58:16.107Z,98.90
2024-03-08T03:03:18.099Z,99.90
2024-03-08T03:08:21.327Z,99.90
2024-03-08T03:13:23.083Z,99.50
2024-03-08T03:18:25.006Z,99.00
2024-03-08T03:23:28.379Z,98.60
2024-03-08T03:28:30.233Z,98.70
2024-03-08T03:33:32.048Z,98.90
2024-03-08T03:38:35.245Z,98.40
2024-03-08T03:43:37.091Z,98.20
2024-03-08T03:48:38.953Z,98.00
2024-03-08T03:53:42.310Z,98.30
2024-03-08T03:58:44.124Z,98.70
2024-03-08T04:03:45.891Z,98.70
2024-03-08T04:08:49.132Z,98.80
2024-03-08T04:13:50.995Z,99.10
2024-03-08T04:18:52.880Z,99.70
2024-03-08T04:23:55.982Z,99.90
2024-03-08T04:28:57.757Z,99.90
2024-03-08T04:33:59.570Z,99.90
2024-03-08T04:39:02.729Z,99.90
2024-03-08T04:44:04.725Z,99.90
2024-03-08T04:49:06.533Z,99.90
2024-03-08T04:54:09.743Z,99.90
2024-03-08T04:59:11.559Z,99.90
2024-03-08T05:04:13.508Z,99.90
2024-03-08T05:09:16.871Z,99.90
2024-03-08T05:14:18.700Z,99.90
2024-03-08T05:19:21.384Z,99.90
2024-03-08T05:24:24.592Z,99.90
2024-03-08T05:29:26.368Z,99.90
2024-03-08T05:34:28.159Z,99.90
2024-03-08T05:39:31.399Z,99.90
2024-03-08T05:44:33.226Z,99.90
2024-03-08T05:49:35.086Z,99.90
2024-03-08T05:54:38.298Z,99.90
2024-03-08T05:59:40.151Z,99.90
2024-03-08T06:04:41.925Z,99.90
2024-03-08T06:09:45.043Z,99.90
2024-03-08T06:14:46.785Z,99.90
2024-03-08T06:19:48.576Z,99.90
2024-03-08T06:24:51.749Z,99.90
2024-03-08T06:29:53.551Z,99.90
2024-03-08T06:34:55.380Z,99.90
2024-03-08T06:39:58.574Z,99.90
2024-03-08T06:45:00.618Z,99.90
2024-03-08T06:50:02.809Z,99.90
2024-03-08T06:55:07.063Z,99.90
2024-03-08T07:00:10.240Z,99.90
2024-03-08T07:05:12.877Z,99.90
2024-03-08T07:10:16.103Z,99.90
2024-03-08T07:15:18.053Z,99.90
2024-03-08T07:20:20.133Z,99.90
2024-03-08T07:25:23.953Z,99.90
2024-03-08T07:30:29.998Z,99.90
2024-03-08T07:35:32.524Z,99.90
2024-03-08T07:40:38.332Z,99.90
2024-03-08T07:45:40.379Z,99.90
2024-03-08T07:50:42.357Z,99.90
2024-03-08T07:55:45.510Z,99.90
2024-03-08T08:00:47.379Z,99.90
2024-03-08T08:05:49.159Z,99.90
2024-03-08T08:10:52.287Z,99.90
2024-03-08T08:15:54.180Z,99.90
2024-03-08T08:20:55.967Z,99.90
2024-03-08T08:25:59.287Z,99.90
2024-03-08T08:31:01.197Z,99.90
2024-03-08T08:36:03.147Z,99.90
2024-03-08T08:41:06.903Z,99.90
2024-03-08T08:46:08.661Z,99.90
2024-03-08T08:51:11.136Z,99.90
2024-03-08T08:56:14.318Z,99.90
2024-03-08T09:01:16.447Z,99.30
2024-03-08T09:06:18.361Z,99.10
2024-03-08T09:11:21.679Z,97.80
2024-03-08T09:16:23.523Z,96.60
2024-03-08T09:21:25.303Z,96.10
2024-03-08T09:26:29.857Z,95.00
2024-03-08T09:31:31.847Z,95.40
2024-03-08T09:36:33.728Z,94.90
2024-03-08T09:41:37.209Z,94.20
2024-03-08T09:46:39.545Z,92.30
2024-03-08T09:51:41.621Z,91.20
2024-03-08T09:56:45.908Z,90.60
2024-03-08T10:01:47.833Z,90.30
2024-03-08T10:06:49.755Z,90.80
2024-03-08T10:11:56.169Z,88.70
2024-03-08T10:16:59.009Z,87.20
2024-03-08T10:22:01.144Z,86.40
2024-03-08T10:27:04.767Z,85.50
2024-03-08T10:32:08.301Z,85.50
2024-03-08T10:37:22.223Z,85.70
2024-03-08T10:42:29.789Z,84.60
2024-03-08T10:47:35.057Z,84.60
2024-03-08T10:52:37.011Z,85.30
2024-03-08T10:57:41.648Z,85.70
2024-03-08T11:02:45.187Z,83.50
2024-03-08T11:07:47.083Z,84.30
2024-03-08T11:12:50.311Z,82.10
2024-03-08T11:17:52.397Z,83.60
2024-03-08T11:22:55.742Z,80.50
2024-03-08T11:28:10.881Z,80.00
2024-03-08T11:33:14.127Z,80.90
2024-03-08T11:38:15.914Z,80.30
2024-03-08T11:43:19.165Z,79.70
2024-03-08T11:48:21.083Z,76.20
2024-03-08T11:53:22.904Z,78.00
2024-03-08T11:58:26.011Z,77.20
2024-03-08T12:03:27.755Z,76.10
2024-03-08T12:08:29.536Z,76.10
2024-03-08T12:13:33.897Z,76.50
2024-03-08T12:18:38.258Z,76.80
2024-03-08T12:23:41.905Z,75.80
2024-03-08T12:28:49.029Z,76.40
2024-03-08T12:33:54.501Z,77.00
2024-03-08T12:38:59.894Z,78.00
2024-03-08T12:44:03.536Z,76.70
2024-03-08T12:49:05.384Z,73.90
2024-03-08T12:54:08.244Z,74.70
2024-03-08T12:59:12.029Z,76.00
2024-03-08T13:04:13.954Z,76.00
2024-03-08T13:09:15.712Z,74.30
2024-03-08T13:14:18.853Z,78.20
2024-03-08T13:19:20.773Z,72.90
2024-03-08T13:24:22.587Z,72.20
2024-03-08T13:29:25.787Z,73.60
2024-03-08T13:34:27.530Z,73.60
2024-03-08T13:39:29.342Z,74.30
2024-03-08T13:44:32.510Z,74.50
2024-03-08T13:49:34.347Z,74.60
2024-03-08T13:54:36.213Z,74.00
2024-03-08T13:59:39.376Z,72.90
2024-03-08T14:04:41.233Z,72.30
2024-03-08T14:09:43.169Z,72.90
2024-03-08T14:14:46.487Z,75.20
2024-03-08T14:19:48.312Z,74.60
2024-03-08T14:24:50.067Z,73.80
2024-03-08T14:29:53.196Z,72.90
2024-03-08T14:34:57.095Z,73.00
2024-03-08T14:39:59.028Z,74.00
2024-03-08T14:45:02.215Z,73.00
2024-03-08T14:50:04.408Z,72.90
2024-03-08T14:55:06.838Z,72.90
2024-03-08T15:00:10.985Z,77.60
2024-03-08T15:05:14.739Z,74.00
2024-03-08T15:10:16.641Z,73.50
2024-03-08T15:15:19.885Z,73.20
2024-03-08T15:20:21.793Z,73.90
2024-03-08T15:25:23.589Z,73.70
2024-03-08T15:30:26.797Z,73.70
2024-03-08T15:35:28.566Z,72.90
2024-03-08T15:40:30.365Z,72.20
2024-03-08T15:45:33.497Z,73.60
2024-03-08T15:50:35.301Z,72.30
2024-03-08T15:55:37.175Z,72.60
2024-03-08T16:00:40.277Z,73.00
2024-03-08T16:05:42.615Z,72.00
2024-03-08T16:10:45.650Z,73.60
2024-03-08T16:15:52.204Z,72.70
2024-03-08T16:20:55.356Z,72.40
2024-03-08T16:25:57.603Z,72.00
2024-03-08T16:31:00.831Z,71.20
2024-03-08T16:36:02.909Z,72.90
2024-03-08T16:41:05.012Z,71.60
2024-03-08T16:46:08.332Z,71.40
2024-03-08T16:51:10.355Z,72.20
2024-03-08T16:56:12.192Z,72.80
2024-03-08T17:01:15.396Z,73.60
2024-03-08T17:06:17.519Z,75.20
2024-03-08T17:11:21.953Z,75.30
2024-03-08T17:16:26.463Z,75.30
2024-03-08T17:21:28.588Z,75.80
2024-03-08T17:26:30.374Z,76.00
2024-03-08T17:31:33.726Z,77.90
2024-03-08T17:36:35.646Z,79.80
2024-03-08T17:41:37.536Z,81.90
2024-03-08T17:46:40.790Z,84.20
2024-03-08T17:51:42.645Z,85.90
2024-03-08T17:56:44.872Z,86.90
2024-03-08T18:01:48.130Z,87.60
2024-03-08T18:06:52.931Z,88.60
2024-03-08T18:11:55.593Z,89.80
2024-03-08T18:16:58.837Z,90.00
2024-03-08T18:22:00.703Z,90.10
2024-03-08T18:27:02.486Z,90.00
2024-03-08T18:32:06.555Z,90.40
2024-03-08T18:37:08.328Z,90.70
2024-03-08T18:42:10.171Z,91.10
2024-03-08T18:47:13.381Z,91.30
2024-03-08T18:52:15.218Z,91.60
2024-03-08T18:57:17.090Z,91.60
2024-03-08T19:02:20.328Z,91.80
2024-03-08T19:07:22.139Z,91.30
2024-03-08T19:12:24.329Z,91.20
2024-03-08T19:17:27.501Z,91.50
2024-03-08T19:22:29.355Z,92.10
2024-03-08T19:27:31.077Z,92.40
2024-03-08T19:32:34.256Z,92.90
2024-03-08T19:37:36.807Z,93.00
2024-03-08T19:42:38.676Z,93.20
2024-03-08T19:47:41.825Z,93.30
2024-03-08T19:52:45.468Z,93.60
2024-03-08T19:57:50.727Z,93.80
2024-03-08T20:02:55.826Z,94.00
2024-03-08T20:07:58.529Z,94.10
2024-03-08T20:13:00.304Z,94.80
2024-03-08T20:18:03.585Z,95.60
2024-03-08T20:23:05.614Z,96.20
2024-03-08T20:28:07.590Z,97.00
2024-03-08T20:33:11.329Z,97.70
2024-03-08T20:38:13.121Z,98.00
2024-03-08T20:43:15.313Z,98.10
2024-03-08T20:48:18.703Z,98.20
2024-03-08T20:53:20.938Z,98.50
2024-03-08T20:58:23.241Z,99.30
2024-03-08T21:03:26.754Z,99.90
2024-03-08T21:08:29.253Z,99.90
2024-03-08T21:13:31.434Z,99.90
2024-03-08T21:18:34.555Z,99.90
2024-03-08T21:23:36.409Z,99.90
2024-03-08T21:28:38.543Z,99.90
2024-03-08T21:33:41.716Z,99.90
2024-03-08T21:38:43.728Z,99.90
2024-03-08T21:43:45.544Z,99.90
2024-03-08T21:48:48.841Z,99.90
2024-03-08T21:53:50.581Z,99.90
2024-03-08T21:58:52.409Z,99.90
2024-03-08T22:03:55.673Z,99.90
2024-03-08T22:08:57.496Z,99.90
2024-03-08T22:13:59.323Z,99.90
2024-03-08T22:19:02.533Z,99.90
2024-03-08T22:24:04.805Z,99.90
2024-03-08T22:29:06.620Z,99.90
2024-03-08T22:34:09.727Z,99.90
2024-03-08T22:39:11.526Z,99.90
2024-03-08T22:44:13.342Z,99.90
2024-03-08T22:49:16.511Z,99.90
2024-03-08T22:54:18.428Z,99.90
2024-03-08T22:59:20.190Z,99.90
2024-03-08T23:04:23.306Z,99.90
2024-03-08T23:09:25.148Z,99.90
2024-03-08T23:14:26.974Z,99.90
2024-03-08T23:19:30.171Z,99.90
2024-03-08T23:24:31.975Z,99.90
2024-03-08T23:29:33.782Z,99.90
2024-03-08T23:34:36.887Z,99.90
2024-03-08T23:39:38.718Z,99.90
2024-03-08T23:44:41.957Z,99.90
2024-03-08T23:49:45.190Z,99.90
2024-03-08T23:54:46.970Z,99.90
2024-03-08T23:59:48.689Z,99.90
